createdAt,value
2022-09-12T00:01:25.721Z,6.90
2022-09-12T00:03:56.349Z,6.70
2022-09-12T00:06:27.525Z,8.93
2022-09-12T00:08:57.272Z,7.90
2022-09-12T00:11:26.233Z,7.35
2022-09-12T00:13:57.188Z,7.22
2022-09-12T00:16:27.341Z,9.27
2022-09-12T00:18:56.994Z,10.48
2022-09-12T00:21:25.370Z,7.70
2022-09-12T00:23:53.461Z,8.15
2022-09-12T00:26:22.491Z,6.70
2022-09-12T00:28:50.895Z,9.07
2022-09-12T00:31:20.870Z,9.00
2022-09-12T00:33:49.302Z,7.38
2022-09-12T00:36:21.259Z,9.05
2022-09-12T00:38:50.670Z,9.23
2022-09-12T00:41:21.858Z,6.78
2022-09-12T00:43:51.924Z,7.55
2022-09-12T00:46:35.353Z,9.82
2022-09-12T00:49:07.138Z,9.45
2022-09-12T00:51:38.140Z,8.43
2022-09-12T00:54:09.293Z,7.88
2022-09-12T00:59:08.519Z,12.23
2022-09-12T01:01:37.201Z,12.38
2022-09-12T01:04:05.739Z,20.10
2022-09-12T01:06:37.821Z,13.15
2022-09-12T01:09:06.581Z,19.35
2022-09-12T01:11:37.550Z,18.42
2022-09-12T01:14:05.828Z,18.35
2022-09-12T01:16:36.294Z,23.40
2022-09-12T01:19:15.192Z,23.13
2022-09-12T01:21:51.132Z,21.38
2022-09-12T01:24:35.389Z,24.27
2022-09-12T01:27:19.676Z,21.02
2022-09-12T01:30:17.964Z,24.27
2022-09-12T01:33:05.560Z,20.85
2022-09-12T01:35:39.507Z,23.55
2022-09-12T01:38:12.461Z,25.38
2022-09-12T01:40:44.982Z,23.35
2022-09-12T01:43:20.714Z,20.65
2022-09-12T01:45:55.496Z,19.92
2022-09-12T01:48:26.339Z,18.70
2022-09-12T01:51:00.449Z,15.10
2022-09-12T01:53:31.355Z,14.70
2022-09-12T01:56:03.595Z,13.10
2022-09-12T01:58:37.638Z,11.00
2022-09-12T02:01:10.665Z,10.80
2022-09-12T02:03:44.517Z,8.85
2022-09-12T02:06:18.698Z,9.15
2022-09-12T02:08:49.625Z,10.77
2022-09-12T02:11:17.903Z,8.63
2022-09-12T02:13:49.339Z,10.98
2022-09-12T02:16:21.217Z,8.52
2022-09-12T02:18:52.957Z,10.15
2022-09-12T02:21:23.604Z,10.20
2022-09-12T02:23:55.481Z,8.90
2022-09-12T02:26:26.772Z,8.80
2022-09-12T02:28:55.082Z,8.00
2022-09-12T02:31:26.707Z,8.68
2022-09-12T02:34:05.123Z,7.75
2022-09-12T02:36:37.054Z,9.25
2022-09-12T02:39:05.726Z,9.50
2022-09-12T02:41:33.924Z,8.45
2022-09-12T02:44:02.258Z,7.68
2022-09-12T02:46:36.792Z,7.80
2022-09-12T02:49:04.958Z,7.32
2022-09-12T02:51:33.635Z,7.07
2022-09-12T02:54:03.276Z,10.02
2022-09-12T02:56:32.150Z,12.82
2022-09-12T02:59:04.584Z,9.15
2022-09-12T03:01:50.824Z,9.50
2022-09-12T03:04:32.913Z,10.88
2022-09-12T03:07:09.243Z,10.20
2022-09-12T03:09:41.988Z,16.77
2022-09-12T03:12:15.389Z,14.77
2022-09-12T03:15:01.626Z,16.75
2022-09-12T03:17:41.599Z,17.70
2022-09-12T03:20:12.416Z,19.02
2022-09-12T03:22:51.040Z,22.77
2022-09-12T03:25:22.846Z,23.30
2022-09-12T03:27:57.039Z,20.90
2022-09-12T03:30:26.167Z,21.85
2022-09-12T03:32:56.366Z,23.23
2022-09-12T03:35:25.675Z,24.13
2022-09-12T03:37:54.219Z,18.35
2022-09-12T03:40:22.787Z,16.52
2022-09-12T03:42:50.840Z,18.13
2022-09-12T03:45:19.314Z,14.88
2022-09-12T03:47:47.639Z,17.92
2022-09-12T03:50:17.272Z,19.10
2022-09-12T03:52:45.694Z,18.67
2022-09-12T03:55:13.845Z,19.55
2022-09-12T03:57:41.871Z,20.27
2022-09-12T04:00:12.877Z,18.30
2022-09-12T04:02:42.558Z,17.75
2022-09-12T04:05:10.742Z,18.85
2022-09-12T04:07:40.535Z,16.00
2022-09-12T04:10:09.765Z,15.88
2022-09-12T04:12:39.598Z,15.82
2022-09-12T04:15:09.339Z,16.23
2022-09-12T04:17:37.524Z,15.68
2022-09-12T04:20:06.922Z,13.80
2022-09-12T04:22:37.649Z,12.70
2022-09-12T04:25:09.623Z,12.23
2022-09-12T04:27:38.302Z,11.57
2022-09-12T04:30:07.615Z,14.52
2022-09-12T04:32:36.136Z,11.90
2022-09-12T04:35:05.202Z,11.70
2022-09-12T04:37:33.405Z,10.02
2022-09-12T04:40:01.799Z,11.60
2022-09-12T04:42:31.862Z,16.00
2022-09-12T04:44:59.951Z,13.30
2022-09-12T04:47:28.049Z,12.30
2022-09-12T04:49:56.653Z,11.98
2022-09-12T04:52:24.747Z,11.48
2022-09-12T04:54:53.367Z,11.57
2022-09-12T04:57:22.188Z,10.55
2022-09-12T04:59:51.749Z,12.60
2022-09-12T05:02:20.020Z,11.23
2022-09-12T05:04:48.430Z,9.00
2022-09-12T05:07:16.634Z,10.40
2022-09-12T05:09:45.019Z,17.40
2022-09-12T05:12:14.798Z,11.13
2022-09-12T05:14:42.938Z,9.27
2022-09-12T05:17:12.549Z,8.95
2022-09-12T05:19:40.857Z,6.95
2022-09-12T05:22:09.831Z,7.18
2022-09-12T05:24:39.608Z,9.32
2022-09-12T05:27:08.358Z,6.75
2022-09-12T05:29:36.694Z,9.18
2022-09-12T05:32:05.134Z,6.88
2022-09-12T05:34:34.900Z,8.90
2022-09-12T05:37:03.025Z,5.60
2022-09-12T05:39:31.902Z,5.78
2022-09-12T05:42:00.271Z,6.22
2022-09-12T05:44:28.688Z,6.00
2022-09-12T05:46:57.616Z,6.95
2022-09-12T05:49:26.208Z,7.65
2022-09-12T05:51:55.705Z,7.78
2022-09-12T05:54:24.895Z,8.40
2022-09-12T05:56:54.967Z,7.95
2022-09-12T05:59:24.252Z,5.47
2022-09-12T06:01:52.480Z,4.47
2022-09-12T06:04:20.894Z,5.50
2022-09-12T06:06:49.031Z,7.80
2022-09-12T06:09:19.119Z,4.38
2022-09-12T06:11:47.934Z,6.70
2022-09-12T06:14:19.771Z,5.97
2022-09-12T06:16:48.765Z,5.90
2022-09-12T06:19:19.048Z,5.53
2022-09-12T06:21:48.477Z,5.80
2022-09-12T06:24:18.512Z,5.72
2022-09-12T06:26:52.960Z,6.77
2022-09-12T06:29:22.296Z,5.13
2022-09-12T06:31:50.852Z,5.50
2022-09-12T06:34:20.353Z,5.25
2022-09-12T06:36:50.315Z,5.32
2022-09-12T06:39:22.023Z,7.90
2022-09-12T06:41:51.140Z,6.82
2022-09-12T06:44:22.559Z,8.27
2022-09-12T06:46:51.335Z,9.77
2022-09-12T06:49:19.573Z,5.13
2022-09-12T06:51:48.171Z,3.97
2022-09-12T06:54:18.005Z,4.72
2022-09-12T06:56:47.606Z,6.25
2022-09-12T06:59:16.174Z,5.40
2022-09-12T07:01:44.408Z,2.67
2022-09-12T07:04:12.781Z,3.33
2022-09-12T07:06:42.366Z,5.07
2022-09-12T07:09:13.779Z,3.55
2022-09-12T07:14:14.207Z,3.28
2022-09-12T07:16:42.969Z,5.40
2022-09-12T07:19:12.175Z,3.75
2022-09-12T07:21:41.045Z,5.03
2022-09-12T07:24:10.855Z,3.50
2022-09-12T07:26:40.402Z,5.47
2022-09-12T07:29:34.875Z,3.92
2022-09-12T07:32:00.160Z,4.30
2022-09-12T07:34:28.281Z,2.53
2022-09-12T07:36:56.557Z,4.68
2022-09-12T07:39:25.038Z,4.72
2022-09-12T07:41:53.610Z,3.33
2022-09-12T07:44:22.963Z,8.73
2022-09-12T07:46:52.520Z,3.97
2022-09-12T07:49:22.138Z,5.50
2022-09-12T07:51:50.255Z,3.65
2022-09-12T07:54:18.975Z,9.63
2022-09-12T07:56:47.282Z,4.30
2022-09-12T07:59:29.979Z,2.30
2022-09-12T08:02:04.104Z,1.98
2022-09-12T08:04:36.558Z,4.50
2022-09-12T08:07:06.788Z,1.98
2022-09-12T08:09:34.922Z,2.65
2022-09-12T08:12:03.903Z,3.65
2022-09-12T08:14:32.678Z,2.20
2022-09-12T08:17:01.061Z,3.83
2022-09-12T08:19:29.215Z,3.75
2022-09-12T08:21:59.204Z,3.67
2022-09-12T08:24:27.918Z,3.15
2022-09-12T08:26:56.120Z,3.83
2022-09-12T08:29:24.501Z,3.45
2022-09-12T08:31:57.024Z,2.53
2022-09-12T08:34:26.250Z,3.85
2022-09-12T08:36:55.427Z,2.45
2022-09-12T08:39:25.760Z,4.32
2022-09-12T08:42:01.877Z,3.75
2022-09-12T08:44:43.978Z,3.25
2022-09-12T08:47:19.360Z,3.13
2022-09-12T08:49:55.130Z,2.20
2022-09-12T08:52:29.048Z,3.97
2022-09-12T08:54:58.847Z,3.25
2022-09-12T08:57:27.635Z,4.68
2022-09-12T08:59:56.439Z,2.40
2022-09-12T09:02:47.421Z,2.72
2022-09-12T09:05:21.293Z,3.78
2022-09-12T09:08:07.683Z,3.17
2022-09-12T09:10:42.415Z,2.60
2022-09-12T09:13:39.786Z,2.63
2022-09-12T09:16:17.020Z,2.85
2022-09-12T09:18:46.329Z,2.88
2022-09-12T09:21:22.548Z,3.42
2022-09-12T09:23:54.303Z,4.68
2022-09-12T09:26:28.110Z,4.35
2022-09-12T09:28:58.947Z,1.55
2022-09-12T09:31:30.481Z,2.53
2022-09-12T09:33:58.944Z,3.92
2022-09-12T09:36:36.188Z,2.30
2022-09-12T09:39:07.159Z,2.05
2022-09-12T09:41:46.892Z,1.92
2022-09-12T09:44:15.263Z,3.88
2022-09-12T09:46:43.655Z,3.35
2022-09-12T09:49:13.783Z,3.92
2022-09-12T09:51:43.485Z,2.53
2022-09-12T09:54:19.553Z,2.55
2022-09-12T09:56:49.305Z,2.17
2022-09-12T09:59:19.584Z,2.05
2022-09-12T10:01:50.542Z,1.60
2022-09-12T10:04:21.223Z,3.28
2022-09-12T10:06:52.629Z,2.88
2022-09-12T10:09:23.943Z,3.55
2022-09-12T10:11:54.581Z,4.63
2022-09-12T10:14:43.953Z,3.05
2022-09-12T10:17:33.236Z,3.60
2022-09-12T10:20:20.392Z,2.90
2022-09-12T10:22:50.001Z,2.20
2022-09-12T10:25:20.208Z,2.42
2022-09-12T10:27:55.794Z,5.28
2022-09-12T10:30:26.217Z,2.40
2022-09-12T10:35:24.626Z,2.03
2022-09-12T10:37:55.945Z,1.80
2022-09-12T10:40:26.652Z,2.90
2022-09-12T10:42:57.706Z,3.05
2022-09-12T10:45:29.265Z,1.30
2022-09-12T10:48:02.066Z,1.77
2022-09-12T10:50:37.647Z,2.45
2022-09-12T10:53:16.115Z,1.77
2022-09-12T10:55:56.722Z,1.98
2022-09-12T10:58:37.862Z,1.80
2022-09-12T11:01:13.318Z,1.25
2022-09-12T11:03:55.828Z,2.63
2022-09-12T11:06:28.835Z,1.40
2022-09-12T11:09:06.291Z,1.88
2022-09-12T11:11:49.891Z,2.53
2022-09-12T11:14:29.600Z,1.20
2022-09-12T11:17:04.415Z,1.30
2022-09-12T11:19:54.946Z,2.08
2022-09-12T11:22:32.735Z,1.48
2022-09-12T11:25:21.288Z,1.50
2022-09-12T11:27:58.226Z,2.08
2022-09-12T11:30:28.735Z,2.83
2022-09-12T11:33:31.668Z,1.90
2022-09-12T11:36:02.989Z,3.17
2022-09-12T11:38:51.361Z,2.42
2022-09-12T11:41:24.269Z,1.48
2022-09-12T11:43:57.937Z,1.30
2022-09-12T11:46:32.529Z,2.80
2022-09-12T11:49:05.536Z,1.20
2022-09-12T11:51:37.220Z,1.92
2022-09-12T11:54:12.248Z,3.13
2022-09-12T11:56:44.511Z,1.13
2022-09-12T11:59:18.107Z,3.67
2022-09-12T12:01:49.205Z,3.35
2022-09-12T12:04:22.134Z,1.25
2022-09-12T12:06:54.074Z,2.45
2022-09-12T12:09:22.379Z,2.13
2022-09-12T12:11:56.145Z,1.65
2022-09-12T12:14:27.342Z,3.25
2022-09-12T12:16:56.840Z,1.90
2022-09-12T12:19:34.186Z,4.22
2022-09-12T12:22:17.697Z,2.13
2022-09-12T12:25:16.232Z,2.33
2022-09-12T12:30:52.873Z,3.78
2022-09-12T12:33:57.557Z,2.60
2022-09-12T12:36:41.733Z,2.70
2022-09-12T12:39:47.019Z,1.75
2022-09-12T12:43:04.670Z,1.65
2022-09-12T12:46:02.931Z,1.80
2022-09-12T12:48:37.365Z,1.80
2022-09-12T12:51:28.720Z,2.13
2022-09-12T12:56:35.455Z,5.22
2022-09-12T12:59:06.495Z,2.45
2022-09-12T13:01:41.221Z,2.55
2022-09-12T13:04:15.463Z,2.80
2022-09-12T13:06:45.617Z,4.18
2022-09-12T13:09:24.776Z,3.15
2022-09-12T13:11:59.578Z,2.78
2022-09-12T13:14:48.847Z,2.10
2022-09-12T13:17:21.686Z,1.65
2022-09-12T13:20:00.784Z,1.80
2022-09-12T13:22:42.656Z,1.15
2022-09-12T13:25:23.924Z,3.05
2022-09-12T13:30:29.740Z,2.20
2022-09-12T13:32:59.306Z,4.20
2022-09-12T13:35:33.563Z,3.28
2022-09-12T13:38:06.472Z,2.50
2022-09-12T13:40:42.465Z,1.77
2022-09-12T13:43:16.089Z,1.98
2022-09-12T13:45:46.624Z,2.67
2022-09-12T13:48:19.192Z,3.90
2022-09-12T13:50:52.313Z,1.73
2022-09-12T13:53:23.351Z,2.47
2022-09-12T13:55:55.011Z,3.08
2022-09-12T13:58:25.312Z,3.53
2022-09-12T14:01:06.312Z,4.93
2022-09-12T14:03:58.065Z,2.50
2022-09-12T14:06:27.837Z,2.67
2022-09-12T14:08:58.561Z,2.42
2022-09-12T14:11:29.777Z,4.40
2022-09-12T14:13:58.599Z,3.40
2022-09-12T14:16:29.310Z,2.05
2022-09-12T14:18:57.633Z,6.22
2022-09-12T14:21:34.337Z,5.72
2022-09-12T14:24:04.904Z,3.20
2022-09-12T14:26:37.659Z,2.65
2022-09-12T14:29:07.252Z,3.20
2022-09-12T14:31:36.925Z,1.95
2022-09-12T14:34:13.614Z,4.82
2022-09-12T14:36:44.884Z,3.30
2022-09-12T14:42:03.568Z,3.10
2022-09-12T14:44:32.244Z,3.35
2022-09-12T14:47:12.086Z,3.75
2022-09-12T14:49:40.380Z,2.78
2022-09-12T14:52:17.962Z,4.13
2022-09-12T14:54:46.224Z,3.67
2022-09-12T14:57:39.082Z,2.28
2022-09-12T15:00:20.983Z,2.67
2022-09-12T15:02:50.643Z,4.35
2022-09-12T15:05:22.174Z,4.07
2022-09-12T15:07:56.495Z,3.42
2022-09-12T15:10:27.941Z,8.30
2022-09-12T15:13:14.268Z,4.13
2022-09-12T15:15:44.129Z,3.50
2022-09-12T15:18:13.844Z,5.40
2022-09-12T15:20:43.869Z,4.20
2022-09-12T15:23:17.472Z,2.15
2022-09-12T15:25:46.248Z,2.47
2022-09-12T15:28:19.293Z,2.72
2022-09-12T15:30:49.631Z,5.22
2022-09-12T15:33:18.853Z,4.13
2022-09-12T15:35:47.302Z,4.97
2022-09-12T15:38:15.717Z,5.82
2022-09-12T15:40:43.962Z,5.82
2022-09-12T15:43:13.903Z,2.53
2022-09-12T15:45:45.293Z,5.03
2022-09-12T15:48:14.030Z,7.82
2022-09-12T15:50:42.406Z,6.18
2022-09-12T15:53:15.089Z,4.30
2022-09-12T15:55:43.835Z,6.53
2022-09-12T15:58:12.968Z,5.80
2022-09-12T16:00:41.201Z,5.18
2022-09-12T16:03:20.739Z,3.97
2022-09-12T16:05:49.098Z,4.55
2022-09-12T16:08:17.185Z,4.55
2022-09-12T16:10:54.262Z,6.63
2022-09-12T16:13:22.598Z,5.30
2022-09-12T16:15:50.832Z,8.38
2022-09-12T16:18:20.770Z,6.85
2022-09-12T16:20:53.204Z,4.22
2022-09-12T16:23:21.495Z,6.93
2022-09-12T16:25:58.050Z,3.47
2022-09-12T16:28:26.429Z,3.00
2022-09-12T16:30:57.907Z,4.53
2022-09-12T16:33:28.239Z,4.25
2022-09-12T16:36:03.487Z,4.25
2022-09-12T16:38:31.684Z,3.33
2022-09-12T16:41:03.703Z,5.05
2022-09-12T16:43:32.469Z,6.18
2022-09-12T16:46:05.011Z,5.80
2022-09-12T16:48:34.855Z,3.95
2022-09-12T16:51:05.179Z,3.78
2022-09-12T16:53:34.289Z,4.18
2022-09-12T16:56:02.560Z,4.22
2022-09-12T16:58:33.530Z,4.15
2022-09-12T17:01:03.644Z,4.25
2022-09-12T17:03:32.331Z,7.78
2022-09-12T17:06:03.309Z,6.47
2022-09-12T17:08:31.643Z,10.43
2022-09-12T17:11:03.124Z,7.43
2022-09-12T17:13:53.055Z,8.35
2022-09-12T17:16:20.698Z,6.13
2022-09-12T17:18:49.384Z,6.05
2022-09-12T17:21:19.416Z,8.15
2022-09-12T17:23:48.045Z,6.65
2022-09-12T17:26:16.592Z,8.15
2022-09-12T17:28:45.425Z,8.70
2022-09-12T17:31:16.203Z,6.80
2022-09-12T17:33:44.921Z,7.60
2022-09-12T17:36:15.737Z,6.55
2022-09-12T17:38:48.415Z,6.00
2022-09-12T17:41:18.689Z,6.32
2022-09-12T17:43:49.407Z,6.67
2022-09-12T17:46:18.409Z,4.63
2022-09-12T17:48:46.945Z,4.20
2022-09-12T17:51:16.838Z,6.68
2022-09-12T17:53:46.773Z,4.22
2022-09-12T17:56:15.839Z,6.13
2022-09-12T17:58:44.250Z,4.38
2022-09-12T18:01:32.514Z,5.03
2022-09-12T18:04:02.503Z,5.75
2022-09-12T18:06:32.126Z,4.40
2022-09-12T18:09:02.659Z,8.43
2022-09-12T18:11:31.137Z,7.82
2022-09-12T18:13:59.642Z,7.18
2022-09-12T18:16:28.615Z,8.35
2022-09-12T18:18:57.309Z,6.55
2022-09-12T18:21:25.477Z,6.18
2022-09-12T18:23:53.634Z,5.75
2022-09-12T18:26:24.370Z,7.72
2022-09-12T18:28:53.099Z,8.50
2022-09-12T18:31:24.097Z,6.40
2022-09-12T18:36:22.016Z,6.97
2022-09-12T18:38:50.606Z,9.05
2022-09-12T18:41:22.178Z,8.25
2022-09-12T18:43:55.342Z,7.05
2022-09-12T18:46:23.910Z,8.40
2022-09-12T18:48:52.381Z,7.10
2022-09-12T18:51:22.318Z,8.15
2022-09-12T18:53:52.542Z,8.73
2022-09-12T18:56:21.298Z,8.93
2022-09-12T18:58:53.993Z,7.78
2022-09-12T19:01:24.576Z,6.32
2022-09-12T19:03:53.787Z,8.27
2022-09-12T19:06:24.216Z,7.10
2022-09-12T19:08:54.195Z,7.63
2022-09-12T19:11:23.431Z,7.00
2022-09-12T19:13:54.427Z,5.45
2022-09-12T19:16:24.569Z,6.50
2022-09-12T19:18:52.954Z,7.80
2022-09-12T19:21:24.712Z,8.40
2022-09-12T19:23:54.966Z,10.43
2022-09-12T19:26:23.387Z,6.47
2022-09-12T19:28:53.484Z,9.38
2022-09-12T19:31:23.598Z,9.20
2022-09-12T19:33:52.251Z,6.68
2022-09-12T19:39:11.939Z,6.50
2022-09-12T19:41:40.187Z,5.38
2022-09-12T19:44:09.876Z,7.60
2022-09-12T19:46:38.369Z,6.93
2022-09-12T19:49:06.529Z,10.75
2022-09-12T19:51:34.754Z,8.48
2022-09-12T19:54:03.187Z,9.18
2022-09-12T19:56:31.412Z,10.50
2022-09-12T19:58:59.824Z,8.75
2022-09-12T20:01:29.915Z,10.75
2022-09-12T20:03:58.889Z,8.50
2022-09-12T20:06:27.718Z,9.18
2022-09-12T20:08:56.486Z,9.55
2022-09-12T20:11:25.674Z,7.45
2022-09-12T20:13:54.257Z,11.80
2022-09-12T20:16:24.563Z,11.30
2022-09-12T20:18:58.812Z,9.80
2022-09-12T20:21:32.132Z,9.07
2022-09-12T20:24:02.415Z,10.63
2022-09-12T20:26:31.226Z,8.73
2022-09-12T20:28:59.400Z,9.70
2022-09-12T20:31:27.648Z,9.50
2022-09-12T20:33:57.229Z,10.55
2022-09-12T20:36:25.396Z,13.07
2022-09-12T20:38:56.895Z,7.75
2022-09-12T20:41:26.014Z,12.07
2022-09-12T20:43:54.936Z,10.02
2022-09-12T20:46:23.390Z,8.88
2022-09-12T20:48:52.183Z,10.50
2022-09-12T20:51:22.326Z,11.20
2022-09-12T20:53:53.930Z,10.05
2022-09-12T20:56:22.582Z,10.05
2022-09-12T20:58:50.961Z,11.40
2022-09-12T21:01:19.070Z,10.25
2022-09-12T21:03:47.917Z,11.10
2022-09-12T21:06:18.059Z,11.45
2022-09-12T21:08:48.510Z,10.48
2022-09-12T21:11:17.721Z,10.65
2022-09-12T21:13:46.057Z,11.27
2022-09-12T21:16:15.642Z,8.00
2022-09-12T21:18:44.173Z,10.40
2022-09-12T21:21:14.383Z,9.07
2022-09-12T21:23:43.021Z,9.52
2022-09-12T21:26:13.025Z,9.70
2022-09-12T21:28:41.138Z,11.85
2022-09-12T21:31:09.912Z,11.13
2022-09-12T21:33:38.363Z,8.07
2022-09-12T21:36:07.457Z,8.10
2022-09-12T21:38:35.866Z,5.80
2022-09-12T21:41:06.547Z,7.13
2022-09-12T21:43:36.492Z,6.18
2022-09-12T21:46:05.863Z,6.80
2022-09-12T21:48:34.598Z,8.65
2022-09-12T21:51:03.632Z,8.80
2022-09-12T21:53:32.254Z,10.10
2022-09-12T21:56:04.877Z,7.85
2022-09-12T21:58:33.123Z,9.57
2022-09-12T22:01:03.220Z,8.20
2022-09-12T22:03:31.594Z,9.32
2022-09-12T22:06:00.367Z,11.13
2022-09-12T22:08:29.372Z,11.20
2022-09-12T22:11:00.640Z,12.75
2022-09-12T22:13:32.434Z,9.32
2022-09-12T22:16:03.525Z,10.57
2022-09-12T22:18:33.755Z,8.43
2022-09-12T22:21:03.546Z,10.15
2022-09-12T22:23:49.432Z,10.23
2022-09-12T22:26:18.165Z,10.93
2022-09-12T22:28:47.563Z,9.73
2022-09-12T22:31:18.009Z,10.85
2022-09-12T22:33:46.405Z,10.63
2022-09-12T22:36:15.552Z,9.35
2022-09-12T22:38:43.956Z,10.43
2022-09-12T22:41:13.297Z,10.75
2022-09-12T22:43:41.974Z,9.18
2022-09-12T22:46:12.405Z,10.63
2022-09-12T22:48:42.904Z,10.98
2022-09-12T22:51:12.310Z,8.82
2022-09-12T22:53:40.876Z,7.22
2022-09-12T22:56:10.276Z,9.93
2022-09-12T22:58:38.552Z,10.57
2022-09-12T23:01:07.317Z,10.40
2022-09-12T23:03:37.081Z,6.88
2022-09-12T23:06:07.622Z,10.75
2022-09-12T23:08:36.583Z,8.88
2022-09-12T23:11:06.089Z,10.07
2022-09-12T23:13:34.520Z,10.48
2022-09-12T23:16:04.723Z,7.65
2022-09-12T23:18:35.398Z,7.80
2022-09-12T23:21:05.230Z,7.25
2022-09-12T23:23:35.638Z,6.55
2022-09-12T23:26:08.411Z,9.15
2022-09-12T23:28:37.164Z,8.35
2022-09-12T23:31:05.345Z,8.48
2022-09-12T23:33:33.831Z,6.78
2022-09-12T23:36:03.749Z,9.55
2022-09-12T23:38:32.558Z,6.90
2022-09-12T23:41:03.531Z,9.18
2022-09-12T23:43:32.299Z,7.00
2022-09-12T23:46:00.640Z,8.32
2022-09-12T23:48:29.275Z,10.45
2022-09-12T23:50:58.104Z,11.93
2022-09-12T23:53:26.967Z,10.00
2022-09-12T23:55:55.348Z,7.10
2022-09-12T23:58:25.648Z,7.50
